LFLL Airport Information

Runway Information
Runway 18L Length 8760 ft width 148 ft
Elevation 780 ft Threshold 0 ft Heading 175
Runway 36R Length 8760 ft Width 148 ft
Elevation 821 ft Threshold 0 ft Heading 355
Runway 18R Length 13124 ft width 148 ft
Elevation 758 ft Threshold 0 ft Heading 175
Runway 36L Length 13124 ft Width 148 ft
Elevation 813 ft Threshold 0 ft Heading 355
Airport Frequencies
Type A/D Name Lyon appro Frequency 136.075 MHZ
Type ATIS Name ATIS Frequency 126.175 MHZ
Type GND Name GND Frequency 121.825 MHZ
Type INFO Name INFO Frequency 135.2 MHZ
Type PFLT Name PREFLIGHT Frequency 121.7 MHZ
Type TWR Name TWR Frequency 120.45 MHZ
Airport Navaids
Type VOR-DME Name Lyon/Saint Exupery Frequency 114750 KHZ
Airport Weather Information & NOTAM
ADDS - METARS form results

(1727 UTC 24 May 2018)
 
METAR text: LFLL 241700Z 19003KT 160V250 CAVOK 25/11 Q1015 NOSIG
Conditions at: LFLL (LYON/SATOLAS , FR) observed 1700 UTC 24 May 2018
Temperature: 25.0°C (77°F)
Dewpoint: 11.0°C (52°F) [RH = 41%]
Pressure (altimeter): 29.97 inches Hg (1015.0 mb)
Winds: from the S (190 degrees) at 3 MPH (3 knots; 1.6 m/s)
Visibility: 6 or more miles (10+ km)
Ceiling: ceiling and visibility are OK
Clouds: unknown
Weather: no significant weather observed at this time

METAR text: LFLL 241630Z 20006KT CAVOK 25/10 Q1016 NOSIG
Conditions at: LFLL (LYON/SATOLAS , FR) observed 1630 UTC 24 May 2018
Temperature: 25.0°C (77°F)
Dewpoint: 10.0°C (50°F) [RH = 39%]
Pressure (altimeter): 30.00 inches Hg (1016.0 mb)
Winds: from the SSW (200 degrees) at 7 MPH (6 knots; 3.1 m/s)
Visibility: 6 or more miles (10+ km)
Ceiling: ceiling and visibility are OK
Clouds: unknown
Weather: no significant weather observed at this time